Terminal Aerodrome Forecast
Issued by NWS

Home | Current Version | Previous Version | Text Only | Print | Product List | Glossary On
Versions: 1 2 3 4 5 6 7 8 9 10 11 12 13
000
FTUS44 KCRP 152300
TAFLRD
TAF
KLRD 152327Z 1600/1624 VRB03KT P6SM SKC
     FM160400 12007KT P6SM SCT250
     FM162000 16015G20KT P6SM SCT050 BKN250=

USA.gov is the U.S. government's official web portal to all federal, state and local government web resources and services.